Time;durP1;ratioP1;P1;durP2;ratioP2;P2;SDS_P1;SDS_P2;PMS_P1;PMS_P2;Temp;Humidity;BMP_temperature;BMP_pressure;BME280_temperature;BME280_humidity;BME280_pressure;Samples;Min_cycle;Max_cycle;Signal;HPM_P1;HPM_P2
2021/06/08 00:01:18;;;;;;;3.15;2.42;;;;;;;;;;4878736;29;20069;-40
2021/06/08 00:03:43;;;;;;;2.22;2.03;;;;;;;;;;4878824;29;20047;-40
2021/06/08 00:06:08;;;;;;;2.53;1.85;;;;;;;;;;4878903;29;20032;-41
2021/06/08 00:08:34;;;;;;;10.35;2.72;;;;;;;;;;4878740;29;20061;-40
2021/06/08 00:10:59;;;;;;;2.65;2.42;;;;;;;;;;4878590;29;20472;-40
2021/06/08 00:13:25;;;;;;;5.30;2.28;;;;;;;;;;4878649;29;20029;-40
2021/06/08 00:15:50;;;;;;;6.60;2.40;;;;;;;;;;4878737;29;20130;-40
2021/06/08 00:18:16;;;;;;;3.40;2.47;;;;;;;;;;4878638;29;20029;-40
2021/06/08 00:20:41;;;;;;;2.30;1.98;;;;;;;;;;4878551;29;20037;-40
2021/06/08 00:23:06;;;;;;;2.60;2.33;;;;;;;;;;4878733;29;20044;-40
2021/06/08 00:25:32;;;;;;;3.60;2.25;;;;;;;;;;4878422;29;20076;-40
2021/06/08 00:28:00;;;;;;;3.25;2.85;;;;;;;;;;4878670;29;20040;-40
2021/06/08 00:30:26;;;;;;;3.80;2.50;;;;;;;;;;4878384;29;20116;-40
2021/06/08 00:32:51;;;;;;;6.40;2.33;;;;;;;;;;4878822;29;20161;-39
2021/06/08 00:35:16;;;;;;;2.88;2.30;;;;;;;;;;4878513;29;20092;-40
2021/06/08 00:37:42;;;;;;;5.25;2.80;;;;;;;;;;4878388;29;20049;-40
2021/06/08 00:40:08;;;;;;;5.65;2.45;;;;;;;;;;4880688;29;20389;-43
2021/06/08 00:42:35;;;;;;;5.45;2.35;;;;;;;;;;4882080;29;20041;-39
2021/06/08 00:45:00;;;;;;;2.80;2.55;;;;;;;;;;4882180;29;20081;-40
2021/06/08 00:47:26;;;;;;;3.00;2.50;;;;;;;;;;4882064;29;20029;-40
2021/06/08 00:49:52;;;;;;;2.75;2.45;;;;;;;;;;4882269;29;20459;-39
2021/06/08 00:52:17;;;;;;;2.72;2.38;;;;;;;;;;4881837;29;20129;-39
2021/06/08 00:54:43;;;;;;;3.17;2.42;;;;;;;;;;4882031;29;20088;-39
2021/06/08 00:57:08;;;;;;;2.80;2.42;;;;;;;;;;4882012;29;20045;-39
2021/06/08 00:59:33;;;;;;;3.45;2.45;;;;;;;;;;4881824;29;20485;-40
2021/06/08 01:01:59;;;;;;;5.72;2.78;;;;;;;;;;4881789;29;20037;-40
2021/06/08 01:04:24;;;;;;;4.75;2.40;;;;;;;;;;4881797;29;20021;-39
2021/06/08 01:06:50;;;;;;;3.67;2.78;;;;;;;;;;4882003;29;20033;-39
2021/06/08 01:09:15;;;;;;;4.10;2.50;;;;;;;;;;4880602;29;20021;-39
2021/06/08 01:11:41;;;;;;;3.97;2.65;;;;;;;;;;4881489;29;20496;-39
2021/06/08 01:14:06;;;;;;;3.53;2.85;;;;;;;;;;4881555;29;20060;-40
2021/06/08 01:16:32;;;;;;;2.88;2.58;;;;;;;;;;4881747;29;20056;-40
2021/06/08 01:18:58;;;;;;;2.75;2.40;;;;;;;;;;4881763;29;20032;-39
2021/06/08 01:21:23;;;;;;;2.75;2.33;;;;;;;;;;4881308;29;20033;-40
2021/06/08 01:23:49;;;;;;;4.15;2.60;;;;;;;;;;4881483;29;20073;-40
2021/06/08 01:26:14;;;;;;;2.55;2.35;;;;;;;;;;4881739;29;20120;-40
2021/06/08 01:28:40;;;;;;;2.67;2.28;;;;;;;;;;4881312;29;20033;-40
2021/06/08 01:31:10;;;;;;;2.50;2.30;;;;;;;;;;4881206;29;20041;-39
2021/06/08 01:33:42;;;;;;;4.00;2.88;;;;;;;;;;4881533;29;20053;-40
2021/06/08 01:36:08;;;;;;;3.40;2.83;;;;;;;;;;4881262;29;20036;-40
2021/06/08 01:38:37;;;;;;;12.70;3.78;;;;;;;;;;4881023;29;20475;-40
2021/06/08 01:41:02;;;;;;;3.30;2.38;;;;;;;;;;4881179;29;20488;-39
2021/06/08 01:43:28;;;;;;;4.68;2.30;;;;;;;;;;4881120;29;20023;-39
2021/06/08 01:45:53;;;;;;;4.35;2.70;;;;;;;;;;4881455;29;20037;-39
2021/06/08 01:48:20;;;;;;;6.28;2.20;;;;;;;;;;4880966;29;20021;-39
2021/06/08 01:50:48;;;;;;;4.95;2.22;;;;;;;;;;4879981;29;20124;-40
2021/06/08 01:53:29;;;;;;;2.83;2.28;;;;;;;;;;4880148;29;20021;-40
2021/06/08 01:55:57;;;;;;;9.32;2.97;;;;;;;;;;4881240;29;20400;-40
2021/06/08 01:58:43;;;;;;;3.38;2.65;;;;;;;;;;4881057;29;20025;-39
2021/06/08 02:01:11;;;;;;;2.70;2.40;;;;;;;;;;4880840;29;20033;-40
2021/06/08 02:03:38;;;;;;;5.13;2.72;;;;;;;;;;4880903;29;20374;-40
2021/06/08 02:06:13;;;;;;;3.80;2.55;;;;;;;;;;4881066;29;20076;-40
2021/06/08 02:08:40;;;;;;;4.10;2.63;;;;;;;;;;4880716;29;20407;-40
2021/06/08 02:11:10;;;;;;;2.83;2.13;;;;;;;;;;4880577;29;20476;-40
2021/06/08 02:13:51;;;;;;;3.25;2.47;;;;;;;;;;4880785;29;20476;-40
2021/06/08 02:16:16;;;;;;;2.95;2.65;;;;;;;;;;4880957;29;20033;-39
2021/06/08 02:18:43;;;;;;;3.78;2.78;;;;;;;;;;4880357;29;20402;-40
2021/06/08 02:21:10;;;;;;;8.13;2.55;;;;;;;;;;4880526;29;20033;-39
2021/06/08 02:23:35;;;;;;;3.33;2.50;;;;;;;;;;4880416;29;20068;-39
2021/06/08 02:26:01;;;;;;;4.15;2.40;;;;;;;;;;4880326;29;20057;-40
2021/06/08 02:28:29;;;;;;;3.45;2.83;;;;;;;;;;4879135;29;20111;-39
2021/06/08 02:30:54;;;;;;;3.40;2.80;;;;;;;;;;4880219;29;20044;-39
2021/06/08 02:33:20;;;;;;;5.75;2.83;;;;;;;;;;4863521;29;20057;-40
2021/06/08 02:35:45;;;;;;;4.22;2.38;;;;;;;;;;4880248;29;20093;-39
2021/06/08 02:38:11;;;;;;;4.57;3.58;;;;;;;;;;4879988;29;20041;-39
2021/06/08 02:40:37;;;;;;;2.60;2.40;;;;;;;;;;4880050;29;20068;-39
2021/06/08 02:43:02;;;;;;;3.78;2.65;;;;;;;;;;4878882;29;20056;-40
2021/06/08 02:45:28;;;;;;;3.33;3.05;;;;;;;;;;4878777;29;20500;-39
2021/06/08 02:47:54;;;;;;;2.85;2.40;;;;;;;;;;4880250;29;20025;-39
2021/06/08 02:50:22;;;;;;;5.68;2.42;;;;;;;;;;4880005;29;20033;-39
2021/06/08 02:52:53;;;;;;;2.97;2.55;;;;;;;;;;4878738;29;20056;-40
2021/06/08 02:55:19;;;;;;;3.90;3.38;;;;;;;;;;4880041;29;20033;-39
2021/06/08 02:57:45;;;;;;;3.17;2.75;;;;;;;;;;4879987;29;20388;-40
2021/06/08 03:00:10;;;;;;;4.82;2.63;;;;;;;;;;4879794;29;20033;-40
2021/06/08 03:02:37;;;;;;;2.90;2.63;;;;;;;;;;4879787;29;20029;-40
2021/06/08 03:05:22;;;;;;;4.53;2.85;;;;;;;;;;4879761;29;20167;-39
2021/06/08 03:07:50;;;;;;;3.10;2.53;;;;;;;;;;4879694;29;20040;-40
2021/06/08 03:10:17;;;;;;;3.13;2.55;;;;;;;;;;4879572;29;20115;-39
2021/06/08 03:12:46;;;;;;;3.15;2.78;;;;;;;;;;4879457;29;20518;-40
2021/06/08 03:15:13;;;;;;;2.28;2.08;;;;;;;;;;4879555;29;20032;-40
2021/06/08 03:17:40;;;;;;;2.92;2.63;;;;;;;;;;4879379;29;20097;-40
2021/06/08 03:20:11;;;;;;;3.60;2.60;;;;;;;;;;4878225;29;20027;-39
2021/06/08 03:22:37;;;;;;;5.97;2.20;;;;;;;;;;4878113;29;20069;-40
2021/06/08 03:25:02;;;;;;;5.18;2.55;;;;;;;;;;4879601;29;20041;-39
2021/06/08 03:27:28;;;;;;;5.25;2.30;;;;;;;;;;4879568;29;20396;-39
2021/06/08 03:29:56;;;;;;;3.25;2.60;;;;;;;;;;4879419;29;20021;-39
2021/06/08 03:32:21;;;;;;;2.65;2.35;;;;;;;;;;4878298;29;20061;-40
2021/06/08 03:34:47;;;;;;;2.80;2.50;;;;;;;;;;4878032;29;20057;-39
2021/06/08 03:37:14;;;;;;;3.65;2.20;;;;;;;;;;4878921;29;20063;-40
2021/06/08 03:39:40;;;;;;;5.88;2.88;;;;;;;;;;4879406;29;20392;-40
2021/06/08 03:42:07;;;;;;;3.95;2.63;;;;;;;;;;4879324;29;20033;-39
2021/06/08 03:44:34;;;;;;;3.08;2.38;;;;;;;;;;4879004;29;20048;-40
2021/06/08 03:46:59;;;;;;;3.35;2.40;;;;;;;;;;4879363;29;20063;-40
2021/06/08 03:49:25;;;;;;;2.40;2.13;;;;;;;;;;4879155;29;20527;-41
2021/06/08 03:51:52;;;;;;;2.72;2.50;;;;;;;;;;4878925;29;20037;-39
2021/06/08 03:54:18;;;;;;;3.00;2.63;;;;;;;;;;4878982;29;20085;-39
2021/06/08 03:56:46;;;;;;;4.55;2.60;;;;;;;;;;4878917;29;20028;-39
2021/06/08 03:59:12;;;;;;;4.57;2.50;;;;;;;;;;4878915;29;20028;-40
2021/06/08 04:01:38;;;;;;;3.35;2.45;;;;;;;;;;4879022;29;20033;-40
2021/06/08 04:04:05;;;;;;;3.97;2.70;;;;;;;;;;4879139;29;20032;-39
2021/06/08 04:06:30;;;;;;;3.53;2.90;;;;;;;;;;4878755;29;20037;-40
2021/06/08 04:08:55;;;;;;;3.80;2.42;;;;;;;;;;4879143;29;20021;-41
2021/06/08 04:11:21;;;;;;;3.95;2.47;;;;;;;;;;4878627;29;20564;-40
2021/06/08 04:13:47;;;;;;;4.25;2.75;;;;;;;;;;4878428;29;20021;-40
2021/06/08 04:16:12;;;;;;;4.72;2.65;;;;;;;;;;4879066;29;20032;-40
2021/06/08 04:18:39;;;;;;;4.15;2.20;;;;;;;;;;4878571;29;20465;-40
2021/06/08 04:21:05;;;;;;;3.50;2.53;;;;;;;;;;4878955;29;20025;-40
2021/06/08 04:23:30;;;;;;;3.83;3.25;;;;;;;;;;4878878;29;20220;-40
2021/06/08 04:25:56;;;;;;;2.97;2.60;;;;;;;;;;4878612;29;20025;-40
2021/06/08 04:28:22;;;;;;;3.05;2.60;;;;;;;;;;4878538;29;20476;-39
2021/06/08 04:30:48;;;;;;;3.35;2.55;;;;;;;;;;4878502;29;20052;-40
2021/06/08 04:33:14;;;;;;;2.80;2.40;;;;;;;;;;4878831;29;20021;-40
2021/06/08 04:35:42;;;;;;;3.22;2.75;;;;;;;;;;4878518;29;20108;-40
2021/06/08 04:38:07;;;;;;;2.30;2.10;;;;;;;;;;4878496;29;20158;-40
2021/06/08 04:40:35;;;;;;;9.43;2.30;;;;;;;;;;4878447;29;20393;-40
2021/06/08 04:43:00;;;;;;;3.85;2.65;;;;;;;;;;4877315;29;20029;-40
2021/06/08 04:45:26;;;;;;;5.43;2.70;;;;;;;;;;4878455;29;20041;-40
2021/06/08 04:47:54;;;;;;;3.08;2.55;;;;;;;;;;4877288;29;20100;-39
2021/06/08 04:50:19;;;;;;;7.82;3.17;;;;;;;;;;4878546;29;20099;-40
2021/06/08 04:52:45;;;;;;;2.97;2.67;;;;;;;;;;4878445;29;20501;-39
2021/06/08 04:55:11;;;;;;;3.50;2.53;;;;;;;;;;4878338;29;20112;-40
2021/06/08 04:57:37;;;;;;;4.05;2.70;;;;;;;;;;4878332;29;20056;-39
2021/06/08 05:00:07;;;;;;;4.05;2.63;;;;;;;;;;4878408;29;20073;-39
2021/06/08 05:02:35;;;;;;;3.70;2.83;;;;;;;;;;4878957;29;20075;-39
2021/06/08 05:05:03;;;;;;;7.25;3.20;;;;;;;;;;4879307;29;20049;-48
2021/06/08 05:07:30;;;;;;;2.92;2.60;;;;;;;;;;4879347;29;20488;-41
2021/06/08 05:09:57;;;;;;;2.95;2.58;;;;;;;;;;4879196;29;20037;-40
2021/06/08 05:12:22;;;;;;;2.72;2.53;;;;;;;;;;4878838;29;20029;-40
2021/06/08 05:14:49;;;;;;;3.22;2.67;;;;;;;;;;4878217;29;20031;-39
2021/06/08 05:17:19;;;;;;;2.80;2.50;;;;;;;;;;4878161;29;20037;-40
2021/06/08 05:19:49;;;;;;;3.05;2.70;;;;;;;;;;4878076;29;20033;-39
2021/06/08 05:22:18;;;;;;;5.63;2.58;;;;;;;;;;4876995;29;20030;-39
2021/06/08 05:24:47;;;;;;;3.25;2.90;;;;;;;;;;4878059;29;20050;-39
2021/06/08 05:27:12;;;;;;;3.55;2.42;;;;;;;;;;4880068;29;20480;-40
2021/06/08 05:29:38;;;;;;;2.88;2.58;;;;;;;;;;4881326;29;20025;-40
2021/06/08 05:32:04;;;;;;;3.47;2.90;;;;;;;;;;4881282;29;20067;-40
2021/06/08 05:34:29;;;;;;;6.43;2.25;;;;;;;;;;4864591;29;20081;-39
2021/06/08 05:36:55;;;;;;;6.60;3.25;;;;;;;;;;4881128;29;20125;-40
2021/06/08 05:39:20;;;;;;;5.78;3.30;;;;;;;;;;4881572;29;20056;-39
2021/06/08 05:41:46;;;;;;;5.65;3.00;;;;;;;;;;4881154;29;20033;-39
2021/06/08 05:44:14;;;;;;;2.95;2.75;;;;;;;;;;4881146;29;20414;-40
2021/06/08 05:46:40;;;;;;;3.38;2.53;;;;;;;;;;4881081;29;20033;-39
2021/06/08 05:49:06;;;;;;;6.97;2.80;;;;;;;;;;4881104;29;20021;-39
2021/06/08 05:51:32;;;;;;;7.05;3.25;;;;;;;;;;4880797;29;20032;-39
2021/06/08 05:53:57;;;;;;;6.25;3.33;;;;;;;;;;4881067;29;20387;-39
2021/06/08 05:56:24;;;;;;;4.15;2.47;;;;;;;;;;4880939;29;20163;-39
2021/06/08 05:58:52;;;;;;;3.90;2.72;;;;;;;;;;4864262;29;20597;-40
2021/06/08 06:01:17;;;;;;;3.70;2.75;;;;;;;;;;4880881;29;20089;-39
2021/06/08 06:03:43;;;;;;;3.15;2.60;;;;;;;;;;4880804;29;20025;-39
2021/06/08 06:06:11;;;;;;;3.85;2.47;;;;;;;;;;4879650;29;20535;-40
2021/06/08 06:08:36;;;;;;;3.65;3.00;;;;;;;;;;4880740;29;20104;-39
2021/06/08 06:11:04;;;;;;;9.73;2.92;;;;;;;;;;4880641;29;20287;-39
2021/06/08 06:13:33;;;;;;;2.92;2.63;;;;;;;;;;4880518;29;20468;-39
2021/06/08 06:16:00;;;;;;;6.22;3.20;;;;;;;;;;4879436;29;20140;-39
2021/06/08 06:18:26;;;;;;;3.75;3.38;;;;;;;;;;4880582;29;20021;-39
2021/06/08 06:20:53;;;;;;;5.47;2.65;;;;;;;;;;4880440;29;20392;-39
2021/06/08 06:23:19;;;;;;;4.72;2.97;;;;;;;;;;4879689;29;20021;-39
2021/06/08 06:25:44;;;;;;;6.22;3.80;;;;;;;;;;4879455;29;20455;-39
2021/06/08 06:28:14;;;;;;;5.15;2.90;;;;;;;;;;4880664;29;20048;-39
2021/06/08 06:30:40;;;;;;;3.53;2.38;;;;;;;;;;4880449;29;20096;-39
2021/06/08 06:33:05;;;;;;;5.18;2.88;;;;;;;;;;4880621;29;20021;-40
2021/06/08 06:35:32;;;;;;;3.30;2.85;;;;;;;;;;4880167;29;20564;-39
2021/06/08 06:37:58;;;;;;;4.25;3.10;;;;;;;;;;4862989;29;20045;-39
2021/06/08 06:40:25;;;;;;;3.22;2.75;;;;;;;;;;4880360;29;20089;-39
2021/06/08 06:42:52;;;;;;;8.68;3.47;;;;;;;;;;4880121;29;20437;-39
2021/06/08 06:45:21;;;;;;;3.47;2.90;;;;;;;;;;4880389;29;20041;-39
2021/06/08 06:47:48;;;;;;;3.28;2.80;;;;;;;;;;4880277;29;20165;-39
2021/06/08 06:50:14;;;;;;;3.42;2.90;;;;;;;;;;4878646;29;20029;-39
2021/06/08 06:52:40;;;;;;;3.30;2.63;;;;;;;;;;4878730;29;20052;-39
2021/06/08 06:55:06;;;;;;;2.88;2.42;;;;;;;;;;4879955;29;20037;-40
2021/06/08 06:57:32;;;;;;;3.85;2.20;;;;;;;;;;4879781;29;20120;-40
2021/06/08 06:59:57;;;;;;;3.13;2.55;;;;;;;;;;4879862;29;20041;-40
2021/06/08 07:02:23;;;;;;;3.17;2.80;;;;;;;;;;4879682;29;20021;-39
2021/06/08 07:04:49;;;;;;;5.45;2.92;;;;;;;;;;4879827;29;20068;-39
2021/06/08 07:07:21;;;;;;;6.07;3.15;;;;;;;;;;4880042;29;20402;-39
2021/06/08 07:09:50;;;;;;;3.97;2.97;;;;;;;;;;4878206;29;20075;-40
2021/06/08 07:12:21;;;;;;;2.88;2.60;;;;;;;;;;4879896;29;20032;-40
2021/06/08 07:14:48;;;;;;;4.22;2.88;;;;;;;;;;4878565;29;20029;-39
2021/06/08 07:17:14;;;;;;;3.65;2.65;;;;;;;;;;4878572;29;20033;-39
2021/06/08 07:19:41;;;;;;;5.05;2.80;;;;;;;;;;4879377;29;20075;-39
2021/06/08 07:22:08;;;;;;;4.22;2.92;;;;;;;;;;4879730;29;20432;-40
2021/06/08 07:24:34;;;;;;;4.70;2.92;;;;;;;;;;4879512;29;20384;-39
2021/06/08 07:26:59;;;;;;;4.72;3.22;;;;;;;;;;4879396;29;20099;-39
2021/06/08 07:29:25;;;;;;;3.65;2.85;;;;;;;;;;4879321;29;20484;-39
2021/06/08 07:32:02;;;;;;;3.95;2.83;;;;;;;;;;4879146;29;20025;-40
2021/06/08 07:34:35;;;;;;;7.25;2.60;;;;;;;;;;4879213;29;20433;-40
2021/06/08 07:37:02;;;;;;;3.22;2.80;;;;;;;;;;4879008;29;20484;-40
2021/06/08 07:39:35;;;;;;;10.75;3.50;;;;;;;;;;4879126;29;20028;-40
2021/06/08 07:42:15;;;;;;;3.85;2.90;;;;;;;;;;4879169;29;20032;-40
2021/06/08 07:44:49;;;;;;;3.45;2.90;;;;;;;;;;4879403;29;20076;-40
2021/06/08 07:47:16;;;;;;;3.28;2.95;;;;;;;;;;4878956;29;20041;-40
2021/06/08 07:49:42;;;;;;;5.60;3.60;;;;;;;;;;4878331;29;20075;-39
2021/06/08 07:52:08;;;;;;;3.40;2.78;;;;;;;;;;4879037;29;20040;-39
2021/06/08 07:54:33;;;;;;;5.75;2.90;;;;;;;;;;4878894;29;20025;-39
2021/06/08 07:56:59;;;;;;;4.68;3.00;;;;;;;;;;4879071;29;20040;-39
2021/06/08 07:59:25;;;;;;;2.65;2.22;;;;;;;;;;4878782;29;20497;-40
2021/06/08 08:01:51;;;;;;;3.15;2.78;;;;;;;;;;4878863;29;20037;-39
2021/06/08 08:04:22;;;;;;;3.60;2.72;;;;;;;;;;4878962;29;20021;-39
2021/06/08 08:06:48;;;;;;;8.90;2.63;;;;;;;;;;4879022;29;20037;-39
2021/06/08 08:09:15;;;;;;;3.65;2.60;;;;;;;;;;4879094;29;20025;-39
2021/06/08 08:11:43;;;;;;;2.70;2.35;;;;;;;;;;4878546;29;20045;-39
2021/06/08 08:14:09;;;;;;;5.88;2.80;;;;;;;;;;4878737;29;20112;-39
2021/06/08 08:16:35;;;;;;;5.65;3.13;;;;;;;;;;4877390;29;20053;-39
2021/06/08 08:19:01;;;;;;;3.50;3.15;;;;;;;;;;4878799;29;20591;-39
2021/06/08 08:21:26;;;;;;;3.33;2.80;;;;;;;;;;4878835;29;20041;-40
2021/06/08 08:23:52;;;;;;;5.25;2.55;;;;;;;;;;4878725;29;20606;-39
2021/06/08 08:26:17;;;;;;;5.93;2.92;;;;;;;;;;4878647;29;20063;-40
2021/06/08 08:28:43;;;;;;;3.67;3.22;;;;;;;;;;4878569;29;20021;-40
2021/06/08 08:31:13;;;;;;;3.28;2.92;;;;;;;;;;4878492;29;20044;-39
2021/06/08 08:33:39;;;;;;;3.38;3.08;;;;;;;;;;4878840;29;20013;-39
2021/06/08 08:36:04;;;;;;;3.80;2.83;;;;;;;;;;4878832;29;20358;-41
2021/06/08 08:38:30;;;;;;;5.13;3.20;;;;;;;;;;4878289;29;20110;-40
2021/06/08 08:40:56;;;;;;;3.22;2.78;;;;;;;;;;4877321;29;20061;-40
2021/06/08 08:43:22;;;;;;;4.65;3.33;;;;;;;;;;4878694;29;20441;-39
2021/06/08 08:45:47;;;;;;;6.88;3.97;;;;;;;;;;4877177;29;20048;-40
2021/06/08 08:48:13;;;;;;;7.35;3.60;;;;;;;;;;4878518;29;20400;-40
2021/06/08 08:50:38;;;;;;;4.18;3.30;;;;;;;;;;4878302;29;20084;-40
2021/06/08 08:53:05;;;;;;;6.82;3.40;;;;;;;;;;4878464;29;20440;-40
2021/06/08 08:55:32;;;;;;;4.68;3.00;;;;;;;;;;4878250;29;20045;-39
2021/06/08 08:57:59;;;;;;;7.57;3.00;;;;;;;;;;4877221;29;20018;-40
2021/06/08 09:00:27;;;;;;;10.30;3.78;;;;;;;;;;4880486;29;20472;-40
2021/06/08 09:02:53;;;;;;;3.53;3.22;;;;;;;;;;4881950;29;20033;-40
2021/06/08 09:05:19;;;;;;;3.08;2.78;;;;;;;;;;4882154;29;20048;-40
2021/06/08 09:07:45;;;;;;;4.80;3.17;;;;;;;;;;4881778;29;20033;-42
2021/06/08 09:10:13;;;;;;;4.07;3.08;;;;;;;;;;4881979;29;20098;-40
2021/06/08 09:12:38;;;;;;;3.85;3.42;;;;;;;;;;4881918;29;20025;-40
2021/06/08 09:15:04;;;;;;;4.05;3.30;;;;;;;;;;4881737;29;20388;-40
2021/06/08 09:17:30;;;;;;;7.10;3.35;;;;;;;;;;4881834;29;20056;-40
2021/06/08 09:19:55;;;;;;;3.22;2.83;;;;;;;;;;4881595;29;20044;-40
2021/06/08 09:22:20;;;;;;;4.10;3.67;;;;;;;;;;4881649;29;20025;-40
2021/06/08 09:24:54;;;;;;;3.75;3.05;;;;;;;;;;4881653;29;20036;-39
2021/06/08 09:27:26;;;;;;;5.13;4.07;;;;;;;;;;4881466;29;20419;-40
2021/06/08 09:29:51;;;;;;;8.68;4.07;;;;;;;;;;4881394;29;20032;-40
2021/06/08 09:32:18;;;;;;;3.65;3.20;;;;;;;;;;4881404;29;20404;-41
2021/06/08 09:34:56;;;;;;;3.97;3.47;;;;;;;;;;4881356;29;20033;-40
2021/06/08 09:37:41;;;;;;;4.30;3.70;;;;;;;;;;4881246;29;20052;-39
2021/06/08 09:40:24;;;;;;;4.03;3.60;;;;;;;;;;4881471;29;20041;-39
2021/06/08 09:43:01;;;;;;;5.63;3.63;;;;;;;;;;4881520;29;20041;-40
2021/06/08 09:45:27;;;;;;;6.38;4.10;;;;;;;;;;4881118;29;20037;-40
2021/06/08 09:47:59;;;;;;;4.93;4.35;;;;;;;;;;4881158;29;20031;-40
2021/06/08 09:50:32;;;;;;;4.93;3.97;;;;;;;;;;4881008;29;20025;-40
2021/06/08 09:53:16;;;;;;;6.03;4.50;;;;;;;;;;4881046;29;20049;-40
2021/06/08 09:55:48;;;;;;;5.75;2.97;;;;;;;;;;4881201;29;20041;-40
2021/06/08 09:58:14;;;;;;;4.63;4.03;;;;;;;;;;4881014;29;20037;-40
2021/06/08 10:00:39;;;;;;;7.28;4.28;;;;;;;;;;4880756;29;20088;-39
2021/06/08 10:03:04;;;;;;;6.70;3.95;;;;;;;;;;4880869;29;20035;-39
2021/06/08 10:05:30;;;;;;;7.25;4.57;;;;;;;;;;4880954;29;20032;-40
2021/06/08 10:07:59;;;;;;;6.50;4.57;;;;;;;;;;4880784;29;20381;-39
2021/06/08 10:10:49;;;;;;;7.75;4.70;;;;;;;;;;4880555;29;20021;-40
2021/06/08 10:13:18;;;;;;;5.68;4.25;;;;;;;;;;4879453;29;20037;-40
2021/06/08 10:15:53;;;;;;;5.07;3.95;;;;;;;;;;4880577;29;20025;-39
2021/06/08 10:18:19;;;;;;;8.98;4.68;;;;;;;;;;4880688;29;20060;-40
2021/06/08 10:21:03;;;;;;;5.38;4.75;;;;;;;;;;4879233;29;20056;-40
2021/06/08 10:23:30;;;;;;;5.25;4.78;;;;;;;;;;4880483;29;20039;-39
2021/06/08 10:25:56;;;;;;;5.88;4.95;;;;;;;;;;4880440;29;20472;-40
2021/06/08 10:28:22;;;;;;;5.82;4.75;;;;;;;;;;4880518;29;20116;-40
2021/06/08 10:30:49;;;;;;;5.68;4.45;;;;;;;;;;4880155;29;20033;-40
2021/06/08 10:33:14;;;;;;;5.18;4.22;;;;;;;;;;4880395;29;20044;-40
2021/06/08 10:35:40;;;;;;;5.13;3.65;;;;;;;;;;4880465;29;20029;-40
2021/06/08 10:38:07;;;;;;;5.38;4.53;;;;;;;;;;4879983;29;20064;-40
2021/06/08 10:40:33;;;;;;;4.47;3.67;;;;;;;;;;4880385;29;20029;-40
2021/06/08 10:42:58;;;;;;;7.75;4.22;;;;;;;;;;4880195;29;20033;-40
2021/06/08 10:45:32;;;;;;;5.15;3.90;;;;;;;;;;4880126;29;20050;-40
2021/06/08 10:48:04;;;;;;;7.97;4.05;;;;;;;;;;4880180;29;20060;-39
2021/06/08 10:50:31;;;;;;;5.13;4.63;;;;;;;;;;4879819;29;20484;-40
2021/06/08 10:52:58;;;;;;;4.32;3.67;;;;;;;;;;4880096;29;20481;-40
2021/06/08 10:55:34;;;;;;;4.60;4.15;;;;;;;;;;4879948;29;20056;-39
2021/06/08 10:58:00;;;;;;;4.45;4.05;;;;;;;;;;4879864;29;20033;-40
2021/06/08 11:00:26;;;;;;;5.55;3.97;;;;;;;;;;4879748;29;20077;-40
2021/06/08 11:02:56;;;;;;;4.10;3.70;;;;;;;;;;4880109;29;20037;-40
2021/06/08 11:05:41;;;;;;;4.45;3.55;;;;;;;;;;4879753;29;20029;-40
2021/06/08 11:08:07;;;;;;;6.50;4.60;;;;;;;;;;4879783;29;20033;-39
2021/06/08 11:10:32;;;;;;;4.50;3.83;;;;;;;;;;4879721;29;20036;-40
2021/06/08 11:13:07;;;;;;;6.43;3.85;;;;;;;;;;4878398;29;20040;-41
2021/06/08 11:15:33;;;;;;;5.80;4.22;;;;;;;;;;4879495;29;20429;-40
2021/06/08 11:17:59;;;;;;;4.18;3.78;;;;;;;;;;4879604;29;20101;-40
2021/06/08 11:20:27;;;;;;;5.45;3.95;;;;;;;;;;4879486;29;20029;-40
2021/06/08 11:22:57;;;;;;;4.60;3.90;;;;;;;;;;4879451;29;20021;-40
2021/06/08 11:25:30;;;;;;;4.00;3.60;;;;;;;;;;4879492;29;20029;-40
2021/06/08 11:27:55;;;;;;;;;;;;;;;;;;4880086;29;20036;-40
2021/06/08 11:30:25;;;;;;;7.30;4.10;;;;;;;;;;4879595;29;20002;-40
2021/06/08 11:32:51;;;;;;;5.10;4.28;;;;;;;;;;4879386;29;20033;-40
2021/06/08 11:35:17;;;;;;;6.05;4.22;;;;;;;;;;4879314;29;20025;-40
2021/06/08 11:37:53;;;;;;;5.32;3.90;;;;;;;;;;4879103;29;20049;-39
2021/06/08 11:40:34;;;;;;;5.30;3.40;;;;;;;;;;4879204;29;20036;-40
2021/06/08 11:43:00;;;;;;;4.30;3.72;;;;;;;;;;4879047;29;20045;-40
2021/06/08 11:45:26;;;;;;;8.93;4.00;;;;;;;;;;4879161;29;20024;-40
2021/06/08 11:47:51;;;;;;;5.22;3.60;;;;;;;;;;4879334;29;20029;-40
2021/06/08 11:50:36;;;;;;;5.35;3.88;;;;;;;;;;4878972;29;20427;-39
2021/06/08 11:53:05;;;;;;;4.45;3.75;;;;;;;;;;4879035;29;20094;-40
2021/06/08 11:55:31;;;;;;;5.25;3.83;;;;;;;;;;4879423;29;20037;-48
2021/06/08 11:57:56;;;;;;;6.35;3.40;;;;;;;;;;4879817;29;20090;-40
2021/06/08 12:00:40;;;;;;;4.78;4.15;;;;;;;;;;4879722;29;20025;-39
2021/06/08 12:03:24;;;;;;;4.20;3.75;;;;;;;;;;4879864;29;20490;-40
2021/06/08 12:05:50;;;;;;;5.50;3.40;;;;;;;;;;4877679;29;20399;-40
2021/06/08 12:08:25;;;;;;;4.63;3.80;;;;;;;;;;4879084;29;20032;-40
2021/06/08 12:10:53;;;;;;;4.13;3.65;;;;;;;;;;4878656;29;20147;-40
2021/06/08 12:13:26;;;;;;;4.93;4.22;;;;;;;;;;4878864;29;20029;-40
2021/06/08 12:15:52;;;;;;;3.63;3.15;;;;;;;;;;4878718;29;20404;-40
2021/06/08 12:18:23;;;;;;;7.45;3.85;;;;;;;;;;4878773;29;20032;-40
2021/06/08 12:20:49;;;;;;;4.38;3.47;;;;;;;;;;4878638;29;20070;-40
2021/06/08 12:23:46;;;;;;;4.88;3.50;;;;;;;;;;4878709;29;20064;-40
2021/06/08 12:26:13;;;;;;;7.70;4.38;;;;;;;;;;4887434;29;20037;-40
2021/06/08 12:28:39;;;;;;;5.80;4.20;;;;;;;;;;4878648;29;20029;-40
2021/06/08 12:31:16;;;;;;;8.68;3.88;;;;;;;;;;4878676;29;20116;-40
2021/06/08 12:33:42;;;;;;;3.90;3.45;;;;;;;;;;4878820;29;20407;-40
2021/06/08 12:36:08;;;;;;;5.50;3.92;;;;;;;;;;4882380;29;20049;-40
2021/06/08 12:38:33;;;;;;;6.05;3.65;;;;;;;;;;4880859;29;20078;-40
2021/06/08 12:41:03;;;;;;;6.95;3.85;;;;;;;;;;4882389;29;20036;-40
2021/06/08 12:43:39;;;;;;;3.97;3.55;;;;;;;;;;4882262;29;20037;-40
2021/06/08 12:46:04;;;;;;;4.15;3.75;;;;;;;;;;4881108;29;20104;-40
2021/06/08 12:48:30;;;;;;;8.75;3.75;;;;;;;;;;4882406;29;20177;-40
2021/06/08 12:50:55;;;;;;;4.47;3.90;;;;;;;;;;4882278;29;20093;-40
2021/06/08 12:53:22;;;;;;;4.00;3.40;;;;;;;;;;4882175;29;20437;-40
2021/06/08 12:55:48;;;;;;;9.23;4.18;;;;;;;;;;4882324;29;20425;-40
2021/06/08 12:58:15;;;;;;;3.88;3.00;;;;;;;;;;4882015;29;20024;-40
2021/06/08 13:00:40;;;;;;;5.07;4.45;;;;;;;;;;4881852;29;20044;-40
2021/06/08 13:03:06;;;;;;;7.78;3.80;;;;;;;;;;4881899;29;20025;-39
2021/06/08 13:05:32;;;;;;;5.05;4.20;;;;;;;;;;4881756;29;20031;-40
2021/06/08 13:07:58;;;;;;;5.28;4.53;;;;;;;;;;4882170;29;20493;-40
2021/06/08 13:10:27;;;;;;;8.68;3.92;;;;;;;;;;4881767;29;20035;-40
2021/06/08 13:12:53;;;;;;;7.38;5.63;;;;;;;;;;4881780;29;20033;-40
2021/06/08 13:15:29;;;;;;;7.47;4.07;;;;;;;;;;4881787;29;20438;-40
2021/06/08 13:18:07;;;;;;;4.38;3.97;;;;;;;;;;4880497;29;20033;-40
2021/06/08 13:20:35;;;;;;;4.75;4.22;;;;;;;;;;4881557;29;20064;-40
2021/06/08 13:23:00;;;;;;;4.85;4.30;;;;;;;;;;4881648;29;20028;-40
2021/06/08 13:25:26;;;;;;;4.53;3.85;;;;;;;;;;4881847;29;20041;-40
2021/06/08 13:27:53;;;;;;;4.68;3.78;;;;;;;;;;4881400;29;20024;-40
2021/06/08 13:30:26;;;;;;;3.97;3.53;;;;;;;;;;4881699;29;20392;-40
2021/06/08 13:32:56;;;;;;;6.28;4.07;;;;;;;;;;4881362;29;20067;-40
2021/06/08 13:35:22;;;;;;;3.75;3.22;;;;;;;;;;4881597;29;20260;-39
2021/06/08 13:37:55;;;;;;;4.10;3.47;;;;;;;;;;4881182;29;20670;-40
2021/06/08 13:40:22;;;;;;;3.92;3.10;;;;;;;;;;4881268;29;20048;-40
2021/06/08 13:42:59;;;;;;;5.57;3.65;;;;;;;;;;4879966;29;20025;-39
2021/06/08 13:45:29;;;;;;;3.70;2.85;;;;;;;;;;4881055;29;20064;-40
2021/06/08 13:47:54;;;;;;;4.90;3.75;;;;;;;;;;4880658;29;20033;-40
2021/06/08 13:50:21;;;;;;;4.68;3.75;;;;;;;;;;4881000;29;20041;-40
2021/06/08 13:53:04;;;;;;;4.68;3.60;;;;;;;;;;4881064;29;20057;-40
2021/06/08 13:55:31;;;;;;;5.05;3.55;;;;;;;;;;4881197;29;20044;-41
2021/06/08 14:01:13;;;;;;;5.78;3.45;;;;;;;;;;4882297;29;20121;-40
2021/06/08 14:03:40;;;;;;;6.22;4.50;;;;;;;;;;4880993;29;20036;-40
2021/06/08 14:06:09;;;;;;;4.75;4.00;;;;;;;;;;4879773;29;20033;-39
2021/06/08 14:08:35;;;;;;;3.60;3.30;;;;;;;;;;4880715;29;20025;-39
2021/06/08 14:11:01;;;;;;;6.80;3.55;;;;;;;;;;4880654;29;20055;-40
2021/06/08 14:13:30;;;;;;;5.22;4.22;;;;;;;;;;4880898;29;20372;-39
2021/06/08 14:15:56;;;;;;;4.43;3.15;;;;;;;;;;4880600;29;20436;-40
2021/06/08 14:18:22;;;;;;;4.13;3.72;;;;;;;;;;4880478;29;20029;-40
2021/06/08 14:20:49;;;;;;;4.68;3.50;;;;;;;;;;4880770;29;20029;-40
2021/06/08 14:23:14;;;;;;;4.47;3.40;;;;;;;;;;4879374;29;20029;-39
2021/06/08 14:25:40;;;;;;;3.90;3.25;;;;;;;;;;4880373;29;20029;-39
2021/06/08 14:28:05;;;;;;;4.25;3.35;;;;;;;;;;4880745;29;20068;-40
2021/06/08 14:30:31;;;;;;;3.85;3.33;;;;;;;;;;4880228;29;20111;-40
2021/06/08 14:32:56;;;;;;;5.30;3.47;;;;;;;;;;4879256;29;20093;-39
2021/06/08 14:35:22;;;;;;;4.75;3.65;;;;;;;;;;4879237;29;20441;-40
2021/06/08 14:37:48;;;;;;;3.22;2.90;;;;;;;;;;4878818;29;20093;-40
2021/06/08 14:40:14;;;;;;;4.00;3.60;;;;;;;;;;4878931;29;20073;-40
2021/06/08 14:42:39;;;;;;;3.65;3.13;;;;;;;;;;4880212;29;20480;-39
2021/06/08 14:45:05;;;;;;;4.05;3.65;;;;;;;;;;4880356;29;20056;-40
2021/06/08 14:47:30;;;;;;;4.95;2.88;;;;;;;;;;4879720;29;20824;-40
2021/06/08 14:49:56;;;;;;;3.83;2.97;;;;;;;;;;4878794;29;20033;-39